createdAt,value
2022-11-02T00:01:50.326Z,102246.00
2022-11-02T00:04:17.428Z,102240.03
2022-11-02T00:06:45.028Z,102237.19
2022-11-02T00:09:12.042Z,102238.97
2022-11-02T00:11:39.263Z,102230.00
2022-11-02T00:14:06.425Z,102212.16
2022-11-02T00:16:39.997Z,102237.13
2022-11-02T00:19:09.721Z,102233.50
2022-11-02T00:21:38.137Z,102236.38
2022-11-02T00:24:06.493Z,102218.66
2022-11-02T00:26:35.382Z,102244.41
2022-11-02T00:29:04.575Z,102248.84
2022-11-02T00:31:32.039Z,102243.72
2022-11-02T00:33:59.101Z,102248.03
2022-11-02T00:36:26.453Z,102255.19
2022-11-02T00:38:53.597Z,102246.41
2022-11-02T00:41:22.249Z,102233.09
2022-11-02T00:43:49.583Z,102240.56
2022-11-02T00:46:16.694Z,102251.91
2022-11-02T00:48:43.868Z,102216.66
2022-11-02T00:51:12.233Z,102221.19
2022-11-02T00:53:42.306Z,102254.22
2022-11-02T00:56:09.466Z,102258.69
2022-11-02T00:58:36.673Z,102253.53
2022-11-02T01:01:08.763Z,102243.75
2022-11-02T01:03:36.627Z,102258.81
2022-11-02T01:06:15.101Z,102251.81
2022-11-02T01:08:42.594Z,102257.25
2022-11-02T01:11:14.287Z,102250.16
2022-11-02T01:13:41.438Z,102244.72
2022-11-02T01:16:09.260Z,102244.03
2022-11-02T01:18:36.412Z,102222.69
2022-11-02T01:21:03.935Z,102242.41
2022-11-02T01:23:35.645Z,102249.53
2022-11-02T01:26:07.737Z,102253.03
2022-11-02T01:28:35.344Z,102243.28
2022-11-02T01:31:02.917Z,102245.94
2022-11-02T01:33:29.999Z,102242.59
2022-11-02T01:35:57.217Z,102249.59
2022-11-02T01:38:24.764Z,102242.88
2022-11-02T01:40:52.496Z,102239.28
2022-11-02T01:43:28.459Z,102224.13
2022-11-02T01:46:20.857Z,102249.91
2022-11-02T01:48:58.622Z,102240.25
2022-11-02T01:51:26.097Z,102250.81
2022-11-02T01:53:55.891Z,102241.16
2022-11-02T01:56:25.888Z,102246.53
2022-11-02T01:58:58.993Z,102240.44
2022-11-02T02:01:27.017Z,102250.06
2022-11-02T02:03:54.932Z,102234.66
2022-11-02T02:06:22.455Z,102235.41
2022-11-02T02:08:51.574Z,102232.94
2022-11-02T02:11:34.054Z,102208.78
2022-11-02T02:14:09.826Z,102206.31
2022-11-02T02:16:49.971Z,102222.34
2022-11-02T02:19:45.120Z,102203.75
2022-11-02T02:22:36.269Z,102238.47
2022-11-02T02:25:26.530Z,102238.56
2022-11-02T02:28:06.224Z,102233.31
2022-11-02T02:30:40.654Z,102219.88
2022-11-02T02:33:18.137Z,102230.56
2022-11-02T02:35:57.481Z,102228.03
2022-11-02T02:38:29.126Z,102201.25
2022-11-02T02:41:17.814Z,102226.09
2022-11-02T02:43:50.841Z,102231.53
2022-11-02T02:46:34.795Z,102239.50
2022-11-02T02:49:05.465Z,102225.34
2022-11-02T02:51:34.811Z,102224.38
2022-11-02T02:54:06.661Z,102224.22
2022-11-02T02:56:41.279Z,102217.00
2022-11-02T02:59:17.012Z,102194.00
2022-11-02T03:01:45.743Z,102213.78
2022-11-02T03:04:13.645Z,102198.63
2022-11-02T03:06:44.596Z,102214.75
2022-11-02T03:09:23.904Z,102222.81
2022-11-02T03:12:22.910Z,102218.28
2022-11-02T03:15:11.359Z,102226.03
2022-11-02T03:18:01.397Z,102220.88
2022-11-02T03:20:28.846Z,102217.44
2022-11-02T03:23:20.524Z,102219.31
2022-11-02T03:25:57.043Z,102216.75
2022-11-02T03:28:42.244Z,102192.88
2022-11-02T03:31:41.591Z,102224.09
2022-11-02T03:34:15.517Z,102226.84
2022-11-02T03:36:54.683Z,102226.03
2022-11-02T03:39:30.480Z,102230.47
2022-11-02T03:42:00.495Z,102234.41
2022-11-02T03:44:30.621Z,102237.38
2022-11-02T03:47:00.516Z,102235.81
2022-11-02T03:49:31.150Z,102234.03
2022-11-02T03:52:04.913Z,102224.41
2022-11-02T03:55:13.673Z,102226.25
2022-11-02T03:57:49.711Z,102227.91
2022-11-02T04:00:22.974Z,102218.09
2022-11-02T04:03:04.371Z,102194.91
2022-11-02T04:05:36.597Z,102219.97
2022-11-02T04:08:23.277Z,102236.41
2022-11-02T04:11:16.195Z,102233.50
2022-11-02T04:14:03.524Z,102182.44
2022-11-02T04:16:35.396Z,102232.47
2022-11-02T04:19:25.462Z,102231.56
2022-11-02T04:22:11.407Z,102227.03
2022-11-02T04:24:59.699Z,102202.03
2022-11-02T04:27:28.055Z,102214.91
2022-11-02T04:29:57.162Z,102231.88
2022-11-02T04:32:45.032Z,102240.41
2022-11-02T04:35:15.449Z,102239.25
2022-11-02T04:38:03.756Z,102216.81
2022-11-02T04:40:35.735Z,102239.69
2022-11-02T04:43:05.054Z,102247.81
2022-11-02T04:45:33.653Z,102243.88
2022-11-02T04:48:06.574Z,102245.53
2022-11-02T04:50:34.979Z,102250.56
2022-11-02T04:53:05.571Z,102259.34
2022-11-02T04:55:34.304Z,102227.03
2022-11-02T04:58:01.606Z,102248.53
2022-11-02T05:00:29.264Z,102253.47
2022-11-02T05:02:56.567Z,102247.16
2022-11-02T05:05:26.114Z,102264.72
2022-11-02T05:07:56.709Z,102257.38
2022-11-02T05:10:23.906Z,102260.13
2022-11-02T05:13:00.078Z,102262.38
2022-11-02T05:15:31.682Z,102262.34
2022-11-02T05:18:00.310Z,102257.06
2022-11-02T05:20:29.980Z,102253.41
2022-11-02T05:22:57.975Z,102253.41
2022-11-02T05:25:25.305Z,102228.41
2022-11-02T05:27:53.058Z,102253.34
2022-11-02T05:30:20.367Z,102263.16
2022-11-02T05:32:48.078Z,102264.09
2022-11-02T05:35:15.510Z,102259.03
2022-11-02T05:37:44.186Z,102261.72
2022-11-02T05:40:12.480Z,102259.09
2022-11-02T05:42:40.293Z,102264.63
2022-11-02T05:45:07.881Z,102263.75
2022-11-02T05:47:34.965Z,102264.78
2022-11-02T05:50:02.402Z,102261.56
2022-11-02T05:52:29.441Z,102261.63
2022-11-02T05:54:56.515Z,102265.25
2022-11-02T05:57:23.660Z,102267.25
2022-11-02T05:59:50.891Z,102210.25
2022-11-02T06:02:20.842Z,102267.66
2022-11-02T06:04:50.648Z,102272.44
2022-11-02T06:07:17.941Z,102274.16
2022-11-02T06:09:45.005Z,102266.31
2022-11-02T06:12:12.146Z,102257.72
2022-11-02T06:14:39.266Z,102268.59
2022-11-02T06:17:06.283Z,102256.09
2022-11-02T06:19:33.322Z,102268.59
2022-11-02T06:22:00.680Z,102263.44
2022-11-02T06:24:31.108Z,102274.13
2022-11-02T06:26:58.648Z,102274.22
2022-11-02T06:29:26.856Z,102280.47
2022-11-02T06:31:57.354Z,102253.09
2022-11-02T06:34:24.694Z,102284.22
2022-11-02T06:36:51.729Z,102279.81
2022-11-02T06:39:18.815Z,102265.59
2022-11-02T06:41:46.013Z,102280.91
2022-11-02T06:44:12.990Z,102293.16
2022-11-02T06:46:40.447Z,102255.16
2022-11-02T06:49:09.702Z,102282.94
2022-11-02T06:51:36.989Z,102282.13
2022-11-02T06:54:08.462Z,102279.72
2022-11-02T06:56:36.033Z,102277.13
2022-11-02T06:59:03.146Z,102259.41
2022-11-02T07:01:30.821Z,102280.75
2022-11-02T07:03:58.721Z,102278.91
2022-11-02T07:06:27.749Z,102285.03
2022-11-02T07:08:56.059Z,102290.59
2022-11-02T07:11:23.414Z,102269.19
2022-11-02T07:13:50.726Z,102286.19
2022-11-02T07:16:17.819Z,102285.31
2022-11-02T07:18:45.056Z,102300.59
2022-11-02T07:21:12.291Z,102290.97
2022-11-02T07:23:39.689Z,102292.75
2022-11-02T07:26:06.711Z,102291.84
2022-11-02T07:28:33.813Z,102270.44
2022-11-02T07:31:01.001Z,102297.31
2022-11-02T07:33:28.070Z,102294.69
2022-11-02T07:35:55.160Z,102300.81
2022-11-02T07:38:22.245Z,102306.13
2022-11-02T07:40:51.200Z,102305.16
2022-11-02T07:43:18.390Z,102304.34
2022-11-02T07:45:52.720Z,102285.53
2022-11-02T07:48:19.884Z,102287.59
2022-11-02T07:50:47.227Z,102298.41
2022-11-02T07:53:14.383Z,102304.63
2022-11-02T07:55:41.533Z,102307.25
2022-11-02T07:58:13.907Z,102284.06
2022-11-02T08:00:41.721Z,102294.97
2022-11-02T08:03:10.983Z,102279.91
2022-11-02T08:05:40.402Z,102308.34
2022-11-02T08:08:12.028Z,102298.06
2022-11-02T08:10:40.611Z,102297.03
2022-11-02T08:13:09.632Z,102310.34
2022-11-02T08:15:37.160Z,102281.81
2022-11-02T08:18:05.487Z,102314.88
2022-11-02T08:20:35.254Z,102311.38
2022-11-02T08:23:02.704Z,102299.53
2022-11-02T08:25:30.010Z,102300.91
2022-11-02T08:27:59.313Z,102317.03
2022-11-02T08:30:27.983Z,102318.34
2022-11-02T08:32:57.024Z,102305.50
2022-11-02T08:35:24.285Z,102302.97
2022-11-02T08:37:56.049Z,102284.50
2022-11-02T08:40:23.916Z,102312.00
2022-11-02T08:42:56.634Z,102312.06
2022-11-02T08:45:23.789Z,102308.56
2022-11-02T08:47:50.993Z,102314.88
2022-11-02T08:50:18.397Z,102315.09
2022-11-02T08:52:45.469Z,102274.38
2022-11-02T08:55:12.757Z,102311.75
2022-11-02T08:57:49.858Z,102310.25
2022-11-02T09:00:19.531Z,102312.63
2022-11-02T09:03:25.025Z,102311.03
2022-11-02T09:05:58.370Z,102289.06
2022-11-02T09:08:26.394Z,102311.09
2022-11-02T09:10:53.727Z,102312.50
2022-11-02T09:13:25.579Z,102279.91
2022-11-02T09:15:55.438Z,102290.00
2022-11-02T09:18:23.522Z,102291.84
2022-11-02T09:20:51.656Z,102262.34
2022-11-02T09:23:20.719Z,102293.06
2022-11-02T09:25:49.116Z,102288.75
2022-11-02T09:28:16.562Z,102256.78
2022-11-02T09:30:43.690Z,102294.72
2022-11-02T09:33:11.225Z,102274.09
2022-11-02T09:35:44.970Z,102276.88
2022-11-02T09:38:12.818Z,102279.03
2022-11-02T09:40:54.977Z,102289.13
2022-11-02T09:43:32.142Z,102290.13
2022-11-02T09:46:19.655Z,102262.91
2022-11-02T09:48:53.017Z,102273.03
2022-11-02T09:51:28.277Z,102281.13
2022-11-02T09:54:08.045Z,102274.25
2022-11-02T09:56:37.897Z,102272.88
2022-11-02T09:59:14.010Z,102262.50
2022-11-02T10:02:05.232Z,102265.22
2022-11-02T10:05:14.914Z,102264.69
2022-11-02T10:08:00.775Z,102255.00
2022-11-02T10:10:37.458Z,102257.78
2022-11-02T10:13:04.660Z,102258.88
2022-11-02T10:15:53.239Z,102246.28
2022-11-02T10:18:26.506Z,102231.06
2022-11-02T10:20:58.350Z,102227.50
2022-11-02T10:23:32.709Z,102247.97
2022-11-02T10:26:02.084Z,102248.13
2022-11-02T10:28:40.025Z,102246.53
2022-11-02T10:31:23.574Z,102241.00
2022-11-02T10:33:57.066Z,102237.31
2022-11-02T10:37:02.027Z,102223.34
2022-11-02T10:39:41.167Z,102224.69
2022-11-02T10:42:32.951Z,102221.38
2022-11-02T10:45:27.970Z,102213.81
2022-11-02T10:48:09.619Z,102215.22
2022-11-02T10:50:58.015Z,102216.50
2022-11-02T10:53:40.673Z,102214.00
2022-11-02T10:56:18.885Z,102209.06
2022-11-02T10:59:02.427Z,102207.38
2022-11-02T11:01:31.738Z,102178.03
2022-11-02T11:04:21.849Z,102211.16
2022-11-02T11:06:49.034Z,102175.59
2022-11-02T11:09:23.581Z,102188.97
2022-11-02T11:12:03.136Z,102192.69
2022-11-02T11:20:31.150Z,102165.09
2022-11-02T11:23:27.693Z,102177.81
2022-11-02T11:25:56.791Z,102178.50
2022-11-02T11:28:27.086Z,102174.19
2022-11-02T11:31:17.037Z,102174.81
2022-11-02T11:33:52.205Z,102166.41
2022-11-02T11:36:28.055Z,102165.66
2022-11-02T11:38:59.818Z,102156.06
2022-11-02T11:41:27.659Z,102146.50
2022-11-02T11:43:55.072Z,102149.38
2022-11-02T11:46:22.335Z,102145.13
2022-11-02T11:48:56.095Z,102125.69
2022-11-02T11:51:43.467Z,102123.03
2022-11-02T11:54:24.342Z,102088.63
2022-11-02T11:56:56.859Z,102117.13
2022-11-02T11:59:28.407Z,102088.97
2022-11-02T12:01:59.035Z,102090.72
2022-11-02T12:04:37.723Z,102079.34
2022-11-02T12:07:18.366Z,102092.59
2022-11-02T12:10:00.556Z,102069.69
2022-11-02T12:12:55.717Z,102092.78
2022-11-02T12:15:54.605Z,102063.44
2022-11-02T12:18:42.193Z,102064.38
2022-11-02T12:21:18.385Z,102082.13
2022-11-02T12:24:10.362Z,102067.97
2022-11-02T12:26:55.226Z,102058.31
2022-11-02T12:29:55.274Z,102062.50
2022-11-02T12:32:39.629Z,102066.84
2022-11-02T12:35:33.268Z,102062.50
2022-11-02T12:38:00.231Z,102057.16
2022-11-02T12:40:57.646Z,102051.81
2022-11-02T12:43:48.010Z,102053.44
2022-11-02T12:46:38.358Z,102042.03
2022-11-02T12:49:19.508Z,102038.53
2022-11-02T12:52:05.197Z,102039.31
2022-11-02T12:54:42.021Z,102012.06
2022-11-02T12:57:16.034Z,102033.31
2022-11-02T12:59:44.826Z,102028.06
2022-11-02T13:02:20.144Z,102019.13
2022-11-02T13:05:22.835Z,102021.06
2022-11-02T13:08:03.192Z,102020.13
2022-11-02T13:10:43.230Z,101986.72
2022-11-02T13:13:24.650Z,101996.34
2022-11-02T13:15:53.276Z,101983.00
2022-11-02T13:18:31.997Z,101989.22
2022-11-02T13:21:02.674Z,101990.88
2022-11-02T13:23:51.314Z,101991.19
2022-11-02T13:26:37.944Z,101963.13
2022-11-02T13:29:30.047Z,101978.97
2022-11-02T13:32:04.393Z,101967.41
2022-11-02T13:34:36.454Z,101975.31
2022-11-02T13:37:16.139Z,101963.00
2022-11-02T13:39:49.903Z,101957.81
2022-11-02T13:42:28.901Z,101940.06
2022-11-02T13:45:24.791Z,101959.47
2022-11-02T13:48:27.914Z,101945.44
2022-11-02T13:50:59.641Z,101936.59
2022-11-02T13:53:40.956Z,101916.28
2022-11-02T13:56:21.171Z,101932.25
2022-11-02T13:58:56.325Z,101925.22
2022-11-02T14:01:24.943Z,101927.75
2022-11-02T14:04:01.866Z,101923.25
2022-11-02T14:06:34.120Z,101929.41
2022-11-02T14:09:06.025Z,101924.38
2022-11-02T14:11:42.188Z,101920.81
2022-11-02T14:14:12.383Z,101883.72
2022-11-02T14:16:48.690Z,101912.97
2022-11-02T14:19:20.316Z,101906.00
2022-11-02T14:21:59.688Z,101904.25
2022-11-02T14:24:32.957Z,101882.22
2022-11-02T14:27:02.225Z,101880.47
2022-11-02T14:29:47.395Z,101884.88
2022-11-02T14:32:17.392Z,101899.19
2022-11-02T14:35:01.141Z,101872.53
2022-11-02T14:37:44.933Z,101899.16
2022-11-02T14:40:47.723Z,101891.06
2022-11-02T14:43:48.895Z,101880.34
2022-11-02T14:46:59.645Z,101895.34
2022-11-02T14:49:29.959Z,101883.78
2022-11-02T14:52:04.868Z,101883.03
2022-11-02T14:54:37.131Z,101888.25
2022-11-02T14:57:15.332Z,101874.19
2022-11-02T14:59:47.813Z,101847.53
2022-11-02T15:02:20.741Z,101880.38
2022-11-02T15:04:54.637Z,101852.09
2022-11-02T15:07:35.073Z,101849.44
2022-11-02T15:10:07.071Z,101876.00
2022-11-02T15:12:39.232Z,101875.81
2022-11-02T15:15:34.672Z,101873.06
2022-11-02T15:18:30.260Z,101876.50
2022-11-02T15:21:18.046Z,101870.28
2022-11-02T15:23:50.977Z,101844.56
2022-11-02T15:26:57.163Z,101861.31
2022-11-02T15:29:27.027Z,101862.13
2022-11-02T15:31:57.557Z,101821.47
2022-11-02T15:34:48.003Z,101841.81
2022-11-02T15:37:25.799Z,101822.34
2022-11-02T15:39:58.815Z,101807.34
2022-11-02T15:42:38.844Z,101819.72
2022-11-02T15:45:56.802Z,101824.97
2022-11-02T15:48:55.604Z,101832.03
2022-11-02T15:51:31.252Z,101812.53
2022-11-02T15:54:14.442Z,101819.72
2022-11-02T15:57:05.170Z,101811.69
2022-11-02T15:59:49.162Z,101816.03
2022-11-02T16:02:28.467Z,101803.59
2022-11-02T16:04:58.918Z,101785.81
2022-11-02T16:07:38.040Z,101803.41
2022-11-02T16:10:20.953Z,101777.75
2022-11-02T16:12:55.756Z,101793.56
2022-11-02T16:15:23.042Z,101800.56
2022-11-02T16:17:50.989Z,101804.88
2022-11-02T16:20:29.500Z,101793.38
2022-11-02T16:23:05.806Z,101790.63
2022-11-02T16:25:50.583Z,101749.00
2022-11-02T16:28:27.896Z,101780.81
2022-11-02T16:31:17.333Z,101777.19
2022-11-02T16:34:02.595Z,101749.59
2022-11-02T16:36:32.438Z,101761.00
2022-11-02T16:39:07.728Z,101766.25
2022-11-02T16:41:36.084Z,101748.56
2022-11-02T16:44:16.942Z,101759.91
2022-11-02T16:47:09.808Z,101754.53
2022-11-02T16:49:52.116Z,101763.16
2022-11-02T16:52:25.979Z,101748.19
2022-11-02T16:54:53.110Z,101742.75
2022-11-02T16:57:26.350Z,101747.00
2022-11-02T16:59:56.344Z,101748.63
2022-11-02T17:02:29.804Z,101719.28
2022-11-02T17:05:02.363Z,101737.78
2022-11-02T17:07:44.746Z,101746.47
2022-11-02T17:10:26.153Z,101742.88
2022-11-02T17:12:54.445Z,101731.31
2022-11-02T17:15:23.554Z,101740.00
2022-11-02T17:18:11.135Z,101739.84
2022-11-02T17:20:39.615Z,101747.63
2022-11-02T17:23:28.972Z,101744.88
2022-11-02T17:26:25.115Z,101749.94
2022-11-02T17:29:17.022Z,101753.28
2022-11-02T17:31:44.314Z,101747.88
2022-11-02T17:34:17.996Z,101745.00
2022-11-02T17:36:52.362Z,101746.75
2022-11-02T17:39:21.017Z,101746.50
2022-11-02T17:42:16.610Z,101737.38
2022-11-02T17:44:45.706Z,101746.31
2022-11-02T17:47:14.203Z,101727.81
2022-11-02T17:49:41.479Z,101745.31
2022-11-02T17:52:13.118Z,101742.53
2022-11-02T17:54:40.296Z,101739.78
2022-11-02T17:57:14.603Z,101742.31
2022-11-02T17:59:41.873Z,101732.50
2022-11-02T18:02:16.411Z,101736.84
2022-11-02T18:07:17.168Z,101687.78
2022-11-02T18:09:44.249Z,101732.84
2022-11-02T18:12:15.236Z,101731.81
2022-11-02T18:14:42.652Z,101722.13
2022-11-02T18:17:09.918Z,101721.84
2022-11-02T18:19:36.929Z,101726.16
2022-11-02T18:22:04.009Z,101695.16
2022-11-02T18:24:31.241Z,101718.13
2022-11-02T18:26:58.325Z,101713.63
2022-11-02T18:29:25.455Z,101717.00
2022-11-02T18:31:52.647Z,101718.69
2022-11-02T18:34:19.848Z,101716.84
2022-11-02T18:36:47.531Z,101692.78
2022-11-02T18:39:14.913Z,101692.72
2022-11-02T18:41:42.788Z,101711.34
2022-11-02T18:44:14.945Z,101707.72
2022-11-02T18:46:42.959Z,101693.50
2022-11-02T18:49:10.031Z,101711.91
2022-11-02T18:51:37.143Z,101718.75
2022-11-02T18:54:05.711Z,101716.94
2022-11-02T18:56:32.784Z,101687.72
2022-11-02T18:59:00.013Z,101710.69
2022-11-02T19:01:27.459Z,101710.56
2022-11-02T19:03:57.019Z,101715.69
2022-11-02T19:06:47.025Z,101704.13
2022-11-02T19:09:19.671Z,101706.69
2022-11-02T19:12:04.736Z,101701.41
2022-11-02T19:14:40.957Z,101699.50
2022-11-02T19:17:09.455Z,101694.03
2022-11-02T19:19:37.073Z,101666.59
2022-11-02T19:22:04.300Z,101680.84
2022-11-02T19:24:31.717Z,101659.50
2022-11-02T19:26:59.139Z,101676.41
2022-11-02T19:29:26.343Z,101671.84
2022-11-02T19:31:53.428Z,101666.41
2022-11-02T19:34:20.500Z,101671.78
2022-11-02T19:36:47.506Z,101661.13
2022-11-02T19:39:14.627Z,101631.03
2022-11-02T19:41:41.764Z,101655.78
2022-11-02T19:44:08.768Z,101651.34
2022-11-02T19:46:35.986Z,101651.13
2022-11-02T19:49:03.200Z,101657.22
2022-11-02T19:51:30.957Z,101648.34
2022-11-02T19:54:00.912Z,101643.84
2022-11-02T19:56:30.576Z,101645.56
2022-11-02T19:58:58.369Z,101649.13
2022-11-02T20:01:28.450Z,101619.78
2022-11-02T20:03:57.631Z,101636.69
2022-11-02T20:06:28.116Z,101633.91
2022-11-02T20:08:58.077Z,101649.03
2022-11-02T20:11:29.688Z,101650.69
2022-11-02T20:13:59.815Z,101622.16
2022-11-02T20:16:27.802Z,101622.16
2022-11-02T20:18:56.125Z,101646.75
2022-11-02T20:21:31.663Z,101638.75
2022-11-02T20:24:01.203Z,101644.66
2022-11-02T20:26:36.371Z,101644.69
2022-11-02T20:29:05.228Z,101616.50
2022-11-02T20:31:37.896Z,101632.41
2022-11-02T20:34:07.143Z,101630.63
2022-11-02T20:36:34.921Z,101619.16
2022-11-02T20:39:05.083Z,101613.88
2022-11-02T20:41:32.803Z,101607.78
2022-11-02T20:44:00.281Z,101618.28
2022-11-02T20:46:37.872Z,101604.94
2022-11-02T20:49:20.105Z,101614.59
2022-11-02T20:51:53.629Z,101591.81
2022-11-02T20:54:22.746Z,101582.25
2022-11-02T20:56:51.061Z,101568.19
2022-11-02T20:59:18.765Z,101569.94
2022-11-02T21:01:50.393Z,101582.06
2022-11-02T21:04:21.326Z,101588.09
2022-11-02T21:06:51.289Z,101559.72
2022-11-02T21:09:22.571Z,101587.38
2022-11-02T21:12:11.413Z,101569.72
2022-11-02T21:14:39.094Z,101557.66
2022-11-02T21:17:07.224Z,101551.38
2022-11-02T21:19:38.284Z,101556.03
2022-11-02T21:22:08.347Z,101555.13
2022-11-02T21:24:36.368Z,101555.03
2022-11-02T21:27:04.349Z,101564.84
2022-11-02T21:29:36.196Z,101559.63
2022-11-02T21:32:03.877Z,101550.59
2022-11-02T21:34:31.443Z,101551.69
2022-11-02T21:36:59.354Z,101561.34
2022-11-02T21:39:26.886Z,101544.75
2022-11-02T21:41:54.555Z,101554.41
2022-11-02T21:44:21.885Z,101545.47
2022-11-02T21:46:50.188Z,101520.09
2022-11-02T21:49:18.184Z,101548.34
2022-11-02T21:51:46.104Z,101539.56
2022-11-02T21:54:16.490Z,101530.06
2022-11-02T21:56:43.997Z,101506.25
2022-11-02T21:59:14.775Z,101526.56
2022-11-02T22:01:45.785Z,101521.22
2022-11-02T22:04:16.123Z,101537.13
2022-11-02T22:06:43.499Z,101537.06
2022-11-02T22:09:13.021Z,101535.41
2022-11-02T22:11:40.808Z,101505.31
2022-11-02T22:14:07.887Z,101522.28
2022-11-02T22:16:38.000Z,101527.56
2022-11-02T22:19:10.318Z,101520.66
2022-11-02T22:21:40.676Z,101517.16
2022-11-02T22:24:08.517Z,101500.53
2022-11-02T22:26:37.207Z,101474.88
2022-11-02T22:29:05.393Z,101492.81
2022-11-02T22:31:35.601Z,101484.09
2022-11-02T22:34:04.666Z,101484.19
2022-11-02T22:36:33.726Z,101469.25
2022-11-02T22:39:02.589Z,101445.34
2022-11-02T22:41:38.301Z,101467.66
2022-11-02T22:44:16.507Z,101473.72
2022-11-02T22:46:50.818Z,101461.41
2022-11-02T22:49:19.815Z,101457.13
2022-11-02T22:51:48.834Z,101465.00
2022-11-02T22:54:18.162Z,101443.06
2022-11-02T22:56:46.986Z,101434.19
2022-11-02T22:59:14.387Z,101418.31
2022-11-02T23:01:42.019Z,101431.72
2022-11-02T23:04:11.378Z,101443.16
2022-11-02T23:06:38.942Z,101437.09
2022-11-02T23:09:06.554Z,101425.75
2022-11-02T23:11:37.764Z,101410.88
2022-11-02T23:14:07.570Z,101383.59
2022-11-02T23:16:47.244Z,101382.88
2022-11-02T23:19:26.481Z,101387.53
2022-11-02T23:22:27.798Z,101389.28
2022-11-02T23:25:12.760Z,101390.06
2022-11-02T23:27:59.464Z,101383.06
2022-11-02T23:30:50.107Z,101385.69
2022-11-02T23:33:17.373Z,101373.41
2022-11-02T23:36:03.310Z,101357.28
2022-11-02T23:38:50.808Z,101376.72
2022-11-02T23:41:19.443Z,101360.00
2022-11-02T23:43:47.447Z,101358.41
2022-11-02T23:46:14.939Z,101354.09
2022-11-02T23:48:42.724Z,101338.88
2022-11-02T23:51:29.251Z,101352.25
2022-11-02T23:54:15.456Z,101332.75
2022-11-02T23:56:43.716Z,101358.09
2022-11-02T23:59:12.723Z,101352.03
